createdAt,value
2023-05-26T00:00:28.397Z,13.50
2023-05-26T00:10:31.536Z,13.52
2023-05-26T00:20:36.309Z,13.88
2023-05-26T00:30:39.672Z,11.95
2023-05-26T00:40:44.306Z,12.48
2023-05-26T00:50:49.726Z,13.63
2023-05-26T01:00:54.340Z,12.45
2023-05-26T01:11:05.053Z,12.70
2023-05-26T01:21:13.611Z,12.13
2023-05-26T01:31:19.722Z,12.50
2023-05-26T01:41:28.588Z,12.07
2023-05-26T01:51:36.589Z,12.25
2023-05-26T02:01:39.833Z,12.27
2023-05-26T02:11:44.499Z,11.60
2023-05-26T02:21:47.747Z,10.88
2023-05-26T02:31:52.320Z,11.75
2023-05-26T02:41:55.598Z,10.95
2023-05-26T02:52:00.218Z,11.38
2023-05-26T03:02:03.440Z,10.38
2023-05-26T03:12:08.722Z,10.40
2023-05-26T03:22:38.160Z,10.05
2023-05-26T03:32:37.503Z,10.27
2023-05-26T03:42:41.000Z,11.25
2023-05-26T03:52:47.837Z,11.07
2023-05-26T04:02:51.233Z,10.70
2023-05-26T04:12:56.293Z,10.73
2023-05-26T04:22:59.477Z,10.77
2023-05-26T04:33:05.115Z,10.35
2023-05-26T04:43:27.448Z,10.10
2023-05-26T04:53:32.116Z,10.35
2023-05-26T05:03:35.844Z,9.57
2023-05-26T05:14:00.733Z,9.30
2023-05-26T05:24:04.459Z,9.15
2023-05-26T05:34:09.237Z,9.48
2023-05-26T05:44:12.555Z,9.40
2023-05-26T05:54:17.173Z,9.52
2023-05-26T06:04:21.509Z,9.02
2023-05-26T06:14:26.235Z,8.68
2023-05-26T06:24:30.271Z,8.73
2023-05-26T06:34:36.726Z,8.50
2023-05-26T06:44:40.103Z,9.18
2023-05-26T06:54:45.735Z,12.23
2023-05-26T07:04:49.119Z,11.07
2023-05-26T07:14:53.811Z,14.40
2023-05-26T07:24:57.526Z,12.13
2023-05-26T07:35:10.338Z,12.75
2023-05-26T07:45:13.580Z,12.10
2023-05-26T07:55:18.172Z,11.65
2023-05-26T08:05:21.363Z,12.52
2023-05-26T08:15:26.338Z,11.02
2023-05-26T08:25:29.779Z,10.82
2023-05-26T08:35:34.371Z,10.10
2023-05-26T08:45:38.106Z,10.27
2023-05-26T08:55:42.676Z,11.10
2023-05-26T09:05:46.981Z,10.32
2023-05-26T09:16:05.789Z,11.98
2023-05-26T09:26:20.774Z,11.82
2023-05-26T09:36:26.124Z,11.20
2023-05-26T09:46:30.634Z,12.30
2023-05-26T09:56:36.310Z,12.00
2023-05-26T10:06:42.509Z,10.73
2023-05-26T10:16:46.523Z,11.38
2023-05-26T10:26:57.173Z,11.93
2023-05-26T10:37:03.380Z,12.77
2023-05-26T10:47:08.164Z,11.27
2023-05-26T10:57:32.905Z,10.30
2023-05-26T11:07:37.492Z,12.23
2023-05-26T11:17:40.706Z,12.00
2023-05-26T11:27:48.958Z,11.15
2023-05-26T11:37:52.244Z,10.65
2023-05-26T11:47:56.806Z,10.85
2023-05-26T11:58:00.179Z,11.23
2023-05-26T12:08:06.612Z,8.60
2023-05-26T12:18:11.172Z,9.43
2023-05-26T12:28:15.929Z,8.98
2023-05-26T12:38:19.287Z,8.13
2023-05-26T12:48:23.880Z,7.22
2023-05-26T12:58:27.101Z,8.80
2023-05-26T13:08:31.720Z,7.35
2023-05-26T13:18:35.418Z,6.43
2023-05-26T13:28:40.229Z,7.95
2023-05-26T13:38:44.144Z,6.55
2023-05-26T13:48:48.688Z,6.20
2023-05-26T13:58:53.587Z,6.85
2023-05-26T14:08:59.303Z,7.43
2023-05-26T14:19:07.024Z,6.63
2023-05-26T14:29:16.471Z,7.28
2023-05-26T14:39:19.749Z,7.03
2023-05-26T14:49:24.395Z,7.90
2023-05-26T14:59:27.595Z,6.90
2023-05-26T15:09:32.749Z,7.45
2023-05-26T15:19:35.967Z,6.90
2023-05-26T15:29:42.635Z,7.22
2023-05-26T15:39:46.281Z,7.43
2023-05-26T15:49:50.809Z,6.30
2023-05-26T15:59:54.033Z,7.20
2023-05-26T16:09:58.611Z,7.05
2023-05-26T16:20:01.966Z,7.20
2023-05-26T16:30:07.815Z,6.85
2023-05-26T16:40:11.697Z,5.82
2023-05-26T16:50:16.254Z,6.13
2023-05-26T17:00:19.861Z,5.13
2023-05-26T17:10:24.725Z,5.18
2023-05-26T17:20:28.056Z,5.93
2023-05-26T17:30:32.992Z,5.38
2023-05-26T17:40:36.261Z,5.13
2023-05-26T17:50:40.934Z,5.30
2023-05-26T18:00:46.682Z,5.30
2023-05-26T18:10:51.329Z,5.65
2023-05-26T18:20:54.679Z,5.15
2023-05-26T18:30:59.468Z,4.70
2023-05-26T18:41:02.829Z,4.82
2023-05-26T18:51:07.427Z,6.60
2023-05-26T19:01:10.608Z,7.18
2023-05-26T19:11:15.286Z,7.05
2023-05-26T19:21:18.474Z,8.43
2023-05-26T19:31:23.055Z,7.97
2023-05-26T19:41:27.219Z,8.30
2023-05-26T19:51:32.460Z,8.10
2023-05-26T20:01:35.895Z,7.63
2023-05-26T20:11:40.640Z,7.95
2023-05-26T20:21:44.424Z,8.00
2023-05-26T20:31:49.228Z,7.55
2023-05-26T20:41:52.706Z,7.00
2023-05-26T20:51:57.274Z,7.30
2023-05-26T21:02:00.549Z,8.40
2023-05-26T21:12:06.580Z,7.18
2023-05-26T21:22:09.745Z,7.90
2023-05-26T21:32:14.703Z,7.72
2023-05-26T21:42:18.027Z,7.63
2023-05-26T21:52:23.215Z,7.45
2023-05-26T22:02:26.418Z,6.10
2023-05-26T22:12:31.079Z,7.00
2023-05-26T22:22:35.111Z,6.57
2023-05-26T22:32:39.640Z,6.20
2023-05-26T22:42:42.808Z,6.53
2023-05-26T22:52:47.319Z,6.60
2023-05-26T23:02:50.661Z,6.57
2023-05-26T23:12:55.217Z,6.38
2023-05-26T23:22:58.375Z,6.57
2023-05-26T23:33:02.967Z,6.72
2023-05-26T23:43:06.520Z,6.80
2023-05-26T23:53:11.560Z,6.88
